sensor_id;sensor_type;location;lat;lon;timestamp;temperature;humidity
51567;DHT22;37657;53.182;5.638;2023-05-07T00:02:21;14.00;99.90
51567;DHT22;37657;53.182;5.638;2023-05-07T00:04:46;14.10;99.90
51567;DHT22;37657;53.182;5.638;2023-05-07T00:07:12;13.90;99.90
51567;DHT22;37657;53.182;5.638;2023-05-07T00:09:38;14.10;99.90
51567;DHT22;37657;53.182;5.638;2023-05-07T00:12:03;14.00;99.90
51567;DHT22;37657;53.182;5.638;2023-05-07T00:14:29;13.90;99.90
51567;DHT22;37657;53.182;5.638;2023-05-07T00:16:55;13.90;99.90
51567;DHT22;37657;53.182;5.638;2023-05-07T00:19:20;13.80;99.90
51567;DHT22;37657;53.182;5.638;2023-05-07T00:21:46;13.70;99.90
51567;DHT22;37657;53.182;5.638;2023-05-07T00:24:12;13.80;99.90
51567;DHT22;37657;53.182;5.638;2023-05-07T00:26:38;13.90;99.90
51567;DHT22;37657;53.182;5.638;2023-05-07T00:29:03;13.80;99.90
51567;DHT22;37657;53.182;5.638;2023-05-07T00:31:29;13.80;99.90
51567;DHT22;37657;53.182;5.638;2023-05-07T00:33:54;13.60;99.90
51567;DHT22;37657;53.182;5.638;2023-05-07T00:36:20;14.00;99.90
51567;DHT22;37657;53.182;5.638;2023-05-07T00:38:45;13.60;99.90
51567;DHT22;37657;53.182;5.638;2023-05-07T00:41:11;14.00;99.90
51567;DHT22;37657;53.182;5.638;2023-05-07T00:43:36;13.60;99.90
51567;DHT22;37657;53.182;5.638;2023-05-07T00:46:03;13.50;99.90
51567;DHT22;37657;53.182;5.638;2023-05-07T00:48:28;13.90;99.90
51567;DHT22;37657;53.182;5.638;2023-05-07T00:50:54;13.90;99.90
51567;DHT22;37657;53.182;5.638;2023-05-07T00:53:20;13.60;99.90
51567;DHT22;37657;53.182;5.638;2023-05-07T00:55:46;13.60;99.90
51567;DHT22;37657;53.182;5.638;2023-05-07T00:58:12;13.60;99.90
51567;DHT22;37657;53.182;5.638;2023-05-07T01:00:37;13.70;99.90
51567;DHT22;37657;53.182;5.638;2023-05-07T01:03:03;14.00;99.90
51567;DHT22;37657;53.182;5.638;2023-05-07T01:05:30;13.90;99.90
51567;DHT22;37657;53.182;5.638;2023-05-07T01:07:56;13.60;99.90
51567;DHT22;37657;53.182;5.638;2023-05-07T01:10:23;13.60;99.90
51567;DHT22;37657;53.182;5.638;2023-05-07T01:12:50;13.90;99.90
51567;DHT22;37657;53.182;5.638;2023-05-07T01:15:16;13.60;99.90
51567;DHT22;37657;53.182;5.638;2023-05-07T01:17:43;13.80;99.90
51567;DHT22;37657;53.182;5.638;2023-05-07T01:20:09;13.60;99.90
51567;DHT22;37657;53.182;5.638;2023-05-07T01:22:39;13.80;99.90
51567;DHT22;37657;53.182;5.638;2023-05-07T01:25:06;13.80;99.90
51567;DHT22;37657;53.182;5.638;2023-05-07T01:27:35;13.40;99.90
51567;DHT22;37657;53.182;5.638;2023-05-07T01:30:02;13.70;99.90
51567;DHT22;37657;53.182;5.638;2023-05-07T01:32:50;13.80;99.90
51567;DHT22;37657;53.182;5.638;2023-05-07T01:35:19;13.50;99.90
51567;DHT22;37657;53.182;5.638;2023-05-07T01:37:46;13.80;99.90
51567;DHT22;37657;53.182;5.638;2023-05-07T01:40:13;13.70;99.90
51567;DHT22;37657;53.182;5.638;2023-05-07T01:42:39;13.60;99.90
51567;DHT22;37657;53.182;5.638;2023-05-07T01:45:05;13.40;99.90
51567;DHT22;37657;53.182;5.638;2023-05-07T01:47:32;13.50;99.90
51567;DHT22;37657;53.182;5.638;2023-05-07T01:49:58;13.80;99.90
51567;DHT22;37657;53.182;5.638;2023-05-07T01:52:23;13.70;99.90
51567;DHT22;37657;53.182;5.638;2023-05-07T01:54:50;13.60;99.90
51567;DHT22;37657;53.182;5.638;2023-05-07T01:57:16;13.60;99.90
51567;DHT22;37657;53.182;5.638;2023-05-07T01:59:41;13.60;99.90
51567;DHT22;37657;53.182;5.638;2023-05-07T02:02:07;13.70;99.90
51567;DHT22;37657;53.182;5.638;2023-05-07T02:04:32;13.50;99.90
51567;DHT22;37657;53.182;5.638;2023-05-07T02:06:58;13.80;99.90
51567;DHT22;37657;53.182;5.638;2023-05-07T02:09:23;13.30;99.90
51567;DHT22;37657;53.182;5.638;2023-05-07T02:11:49;13.70;99.90
51567;DHT22;37657;53.182;5.638;2023-05-07T02:14:15;13.30;99.90
51567;DHT22;37657;53.182;5.638;2023-05-07T02:16:41;13.80;99.90
51567;DHT22;37657;53.182;5.638;2023-05-07T02:19:06;13.70;99.90
51567;DHT22;37657;53.182;5.638;2023-05-07T02:21:32;13.40;99.90
51567;DHT22;37657;53.182;5.638;2023-05-07T02:23:57;13.30;99.90
51567;DHT22;37657;53.182;5.638;2023-05-07T02:26:23;13.80;99.90
51567;DHT22;37657;53.182;5.638;2023-05-07T02:28:49;13.80;99.90
51567;DHT22;37657;53.182;5.638;2023-05-07T02:31:14;13.30;99.90
51567;DHT22;37657;53.182;5.638;2023-05-07T02:33:40;13.50;99.90
51567;DHT22;37657;53.182;5.638;2023-05-07T02:36:09;13.60;99.90
51567;DHT22;37657;53.182;5.638;2023-05-07T02:38:35;13.50;99.90
51567;DHT22;37657;53.182;5.638;2023-05-07T02:41:01;13.30;99.90
51567;DHT22;37657;53.182;5.638;2023-05-07T02:43:26;13.30;99.90
51567;DHT22;37657;53.182;5.638;2023-05-07T02:46:10;13.40;99.90
51567;DHT22;37657;53.182;5.638;2023-05-07T02:48:36;13.60;99.90
51567;DHT22;37657;53.182;5.638;2023-05-07T02:51:02;13.70;99.90
51567;DHT22;37657;53.182;5.638;2023-05-07T02:53:28;13.70;99.90
51567;DHT22;37657;53.182;5.638;2023-05-07T02:55:57;13.50;99.90
51567;DHT22;37657;53.182;5.638;2023-05-07T02:58:23;13.30;99.90
51567;DHT22;37657;53.182;5.638;2023-05-07T03:00:48;13.70;99.90
51567;DHT22;37657;53.182;5.638;2023-05-07T03:03:14;13.30;99.90
51567;DHT22;37657;53.182;5.638;2023-05-07T03:05:40;13.50;99.90
51567;DHT22;37657;53.182;5.638;2023-05-07T03:08:07;13.70;99.90
51567;DHT22;37657;53.182;5.638;2023-05-07T03:10:33;13.40;99.90
51567;DHT22;37657;53.182;5.638;2023-05-07T03:12:58;13.20;99.90
51567;DHT22;37657;53.182;5.638;2023-05-07T03:15:24;13.20;99.90
51567;DHT22;37657;53.182;5.638;2023-05-07T03:17:49;13.50;99.90
51567;DHT22;37657;53.182;5.638;2023-05-07T03:20:15;13.70;99.90
51567;DHT22;37657;53.182;5.638;2023-05-07T03:22:41;13.30;99.90
51567;DHT22;37657;53.182;5.638;2023-05-07T03:25:08;13.50;99.90
51567;DHT22;37657;53.182;5.638;2023-05-07T03:27:34;13.40;99.90
51567;DHT22;37657;53.182;5.638;2023-05-07T03:29:59;13.30;99.90
51567;DHT22;37657;53.182;5.638;2023-05-07T03:32:25;13.50;99.90
51567;DHT22;37657;53.182;5.638;2023-05-07T03:34:51;13.50;99.90
51567;DHT22;37657;53.182;5.638;2023-05-07T03:37:17;13.30;99.90
51567;DHT22;37657;53.182;5.638;2023-05-07T03:39:42;13.20;99.90
51567;DHT22;37657;53.182;5.638;2023-05-07T03:42:08;13.10;99.90
51567;DHT22;37657;53.182;5.638;2023-05-07T03:44:33;13.50;99.90
51567;DHT22;37657;53.182;5.638;2023-05-07T03:46:59;13.10;99.90
51567;DHT22;37657;53.182;5.638;2023-05-07T03:49:25;13.30;99.90
51567;DHT22;37657;53.182;5.638;2023-05-07T03:51:50;13.40;99.90
51567;DHT22;37657;53.182;5.638;2023-05-07T03:54:16;13.30;99.90
51567;DHT22;37657;53.182;5.638;2023-05-07T03:56:41;13.30;99.90
51567;DHT22;37657;53.182;5.638;2023-05-07T03:59:07;13.20;99.90
51567;DHT22;37657;53.182;5.638;2023-05-07T04:01:33;13.30;99.90
51567;DHT22;37657;53.182;5.638;2023-05-07T04:03:58;13.10;99.90
51567;DHT22;37657;53.182;5.638;2023-05-07T04:06:24;13.40;99.90
51567;DHT22;37657;53.182;5.638;2023-05-07T04:08:49;13.10;99.90
51567;DHT22;37657;53.182;5.638;2023-05-07T04:11:15;13.00;99.90
51567;DHT22;37657;53.182;5.638;2023-05-07T04:13:40;13.00;99.90
51567;DHT22;37657;53.182;5.638;2023-05-07T04:16:06;13.10;99.90
51567;DHT22;37657;53.182;5.638;2023-05-07T04:18:32;13.10;99.90
51567;DHT22;37657;53.182;5.638;2023-05-07T04:20:57;13.00;99.90
51567;DHT22;37657;53.182;5.638;2023-05-07T04:23:23;13.10;99.90
51567;DHT22;37657;53.182;5.638;2023-05-07T04:25:48;13.20;99.90
51567;DHT22;37657;53.182;5.638;2023-05-07T04:28:14;13.20;99.90
51567;DHT22;37657;53.182;5.638;2023-05-07T04:30:40;12.90;99.90
51567;DHT22;37657;53.182;5.638;2023-05-07T04:33:06;12.80;99.90
51567;DHT22;37657;53.182;5.638;2023-05-07T04:35:32;13.10;99.90
51567;DHT22;37657;53.182;5.638;2023-05-07T04:37:58;13.20;99.90
51567;DHT22;37657;53.182;5.638;2023-05-07T04:40:23;13.00;99.90
51567;DHT22;37657;53.182;5.638;2023-05-07T04:42:49;13.00;99.90
51567;DHT22;37657;53.182;5.638;2023-05-07T04:45:14;12.70;99.90
51567;DHT22;37657;53.182;5.638;2023-05-07T04:47:40;12.70;99.90
51567;DHT22;37657;53.182;5.638;2023-05-07T04:50:09;12.70;99.90
51567;DHT22;37657;53.182;5.638;2023-05-07T04:52:35;13.00;99.90
51567;DHT22;37657;53.182;5.638;2023-05-07T04:55:01;12.70;99.90
51567;DHT22;37657;53.182;5.638;2023-05-07T04:57:27;12.60;99.90
51567;DHT22;37657;53.182;5.638;2023-05-07T04:59:53;12.70;99.90
51567;DHT22;37657;53.182;5.638;2023-05-07T05:02:19;12.80;99.90
51567;DHT22;37657;53.182;5.638;2023-05-07T05:04:44;12.80;99.90
51567;DHT22;37657;53.182;5.638;2023-05-07T05:07:10;12.60;99.90
51567;DHT22;37657;53.182;5.638;2023-05-07T05:09:36;12.90;99.90
51567;DHT22;37657;53.182;5.638;2023-05-07T05:12:01;12.90;99.90
51567;DHT22;37657;53.182;5.638;2023-05-07T05:14:27;12.70;99.90
51567;DHT22;37657;53.182;5.638;2023-05-07T05:16:52;12.70;99.90
51567;DHT22;37657;53.182;5.638;2023-05-07T05:19:18;12.70;99.90
51567;DHT22;37657;53.182;5.638;2023-05-07T05:21:43;13.00;99.90
51567;DHT22;37657;53.182;5.638;2023-05-07T05:24:09;13.00;99.90
51567;DHT22;37657;53.182;5.638;2023-05-07T05:26:35;13.10;99.90
51567;DHT22;37657;53.182;5.638;2023-05-07T05:29:00;12.80;99.90
51567;DHT22;37657;53.182;5.638;2023-05-07T05:31:26;13.00;99.90
51567;DHT22;37657;53.182;5.638;2023-05-07T05:33:51;13.30;99.90
51567;DHT22;37657;53.182;5.638;2023-05-07T05:36:17;13.30;99.90
51567;DHT22;37657;53.182;5.638;2023-05-07T05:38:43;13.30;99.90
51567;DHT22;37657;53.182;5.638;2023-05-07T05:41:09;13.40;99.90
51567;DHT22;37657;53.182;5.638;2023-05-07T05:43:35;13.20;99.90
51567;DHT22;37657;53.182;5.638;2023-05-07T05:46:01;13.30;99.90
51567;DHT22;37657;53.182;5.638;2023-05-07T05:48:26;13.50;99.90
51567;DHT22;37657;53.182;5.638;2023-05-07T05:50:52;13.30;99.90
51567;DHT22;37657;53.182;5.638;2023-05-07T05:53:18;13.40;99.90
51567;DHT22;37657;53.182;5.638;2023-05-07T05:55:43;13.40;99.90
51567;DHT22;37657;53.182;5.638;2023-05-07T05:58:09;13.50;99.90
51567;DHT22;37657;53.182;5.638;2023-05-07T06:00:35;13.50;99.90
51567;DHT22;37657;53.182;5.638;2023-05-07T06:03:00;13.30;99.90
51567;DHT22;37657;53.182;5.638;2023-05-07T06:05:26;13.40;99.90
51567;DHT22;37657;53.182;5.638;2023-05-07T06:07:52;13.40;99.90
51567;DHT22;37657;53.182;5.638;2023-05-07T06:10:17;13.50;99.90
51567;DHT22;37657;53.182;5.638;2023-05-07T06:12:43;13.40;99.90
51567;DHT22;37657;53.182;5.638;2023-05-07T06:15:10;13.50;99.90
51567;DHT22;37657;53.182;5.638;2023-05-07T06:17:35;13.60;99.90
51567;DHT22;37657;53.182;5.638;2023-05-07T06:20:01;13.60;99.90
51567;DHT22;37657;53.182;5.638;2023-05-07T06:22:28;13.80;99.90
51567;DHT22;37657;53.182;5.638;2023-05-07T06:24:53;13.80;99.90
51567;DHT22;37657;53.182;5.638;2023-05-07T06:27:19;13.70;99.90
51567;DHT22;37657;53.182;5.638;2023-05-07T06:29:44;13.90;99.90
51567;DHT22;37657;53.182;5.638;2023-05-07T06:32:12;14.00;99.90
51567;DHT22;37657;53.182;5.638;2023-05-07T06:34:38;13.90;99.90
51567;DHT22;37657;53.182;5.638;2023-05-07T06:37:04;14.00;99.90
51567;DHT22;37657;53.182;5.638;2023-05-07T06:39:30;14.10;99.90
51567;DHT22;37657;53.182;5.638;2023-05-07T06:41:56;14.10;99.90
51567;DHT22;37657;53.182;5.638;2023-05-07T06:44:21;14.10;99.90
51567;DHT22;37657;53.182;5.638;2023-05-07T06:46:47;14.30;99.90
51567;DHT22;37657;53.182;5.638;2023-05-07T06:49:13;14.20;99.90
51567;DHT22;37657;53.182;5.638;2023-05-07T06:51:39;14.30;99.90
51567;DHT22;37657;53.182;5.638;2023-05-07T06:54:05;14.30;99.90
51567;DHT22;37657;53.182;5.638;2023-05-07T06:56:31;14.20;99.90
51567;DHT22;37657;53.182;5.638;2023-05-07T06:58:57;14.20;99.90
51567;DHT22;37657;53.182;5.638;2023-05-07T07:01:22;14.20;99.90
51567;DHT22;37657;53.182;5.638;2023-05-07T07:03:48;14.30;99.90
51567;DHT22;37657;53.182;5.638;2023-05-07T07:06:14;14.40;99.90
51567;DHT22;37657;53.182;5.638;2023-05-07T07:08:39;14.30;99.90
51567;DHT22;37657;53.182;5.638;2023-05-07T07:11:06;14.30;99.90
51567;DHT22;37657;53.182;5.638;2023-05-07T07:13:31;14.40;99.90
51567;DHT22;37657;53.182;5.638;2023-05-07T07:15:57;14.40;99.90
51567;DHT22;37657;53.182;5.638;2023-05-07T07:18:22;14.40;99.90
51567;DHT22;37657;53.182;5.638;2023-05-07T07:20:48;14.50;99.90
51567;DHT22;37657;53.182;5.638;2023-05-07T07:23:14;14.60;99.90
51567;DHT22;37657;53.182;5.638;2023-05-07T07:25:39;14.60;99.90
51567;DHT22;37657;53.182;5.638;2023-05-07T07:28:05;14.60;99.90
51567;DHT22;37657;53.182;5.638;2023-05-07T07:30:31;14.70;99.90
51567;DHT22;37657;53.182;5.638;2023-05-07T07:32:56;14.80;99.90
51567;DHT22;37657;53.182;5.638;2023-05-07T07:35:28;14.80;99.90
51567;DHT22;37657;53.182;5.638;2023-05-07T07:37:53;14.90;99.90
51567;DHT22;37657;53.182;5.638;2023-05-07T07:40:19;14.90;99.90
51567;DHT22;37657;53.182;5.638;2023-05-07T07:42:45;15.00;99.90
51567;DHT22;37657;53.182;5.638;2023-05-07T07:45:10;15.10;99.90
51567;DHT22;37657;53.182;5.638;2023-05-07T07:47:36;15.20;99.90
51567;DHT22;37657;53.182;5.638;2023-05-07T07:50:02;15.20;99.90
51567;DHT22;37657;53.182;5.638;2023-05-07T07:52:28;15.30;99.90
51567;DHT22;37657;53.182;5.638;2023-05-07T07:54:53;15.30;99.90
51567;DHT22;37657;53.182;5.638;2023-05-07T07:57:19;15.30;99.90
51567;DHT22;37657;53.182;5.638;2023-05-07T07:59:44;15.30;99.90
51567;DHT22;37657;53.182;5.638;2023-05-07T08:02:10;15.30;99.90
51567;DHT22;37657;53.182;5.638;2023-05-07T08:04:35;15.30;99.90
51567;DHT22;37657;53.182;5.638;2023-05-07T08:07:02;15.40;99.90
51567;DHT22;37657;53.182;5.638;2023-05-07T08:09:28;15.50;99.90
51567;DHT22;37657;53.182;5.638;2023-05-07T08:11:53;15.40;99.90
51567;DHT22;37657;53.182;5.638;2023-05-07T08:14:19;15.50;99.90
51567;DHT22;37657;53.182;5.638;2023-05-07T08:16:45;15.70;99.90
51567;DHT22;37657;53.182;5.638;2023-05-07T08:19:10;15.80;99.90
51567;DHT22;37657;53.182;5.638;2023-05-07T08:21:39;16.00;99.90
51567;DHT22;37657;53.182;5.638;2023-05-07T08:24:04;16.00;99.90
51567;DHT22;37657;53.182;5.638;2023-05-07T08:26:30;16.20;99.90
51567;DHT22;37657;53.182;5.638;2023-05-07T08:28:56;16.20;99.90
51567;DHT22;37657;53.182;5.638;2023-05-07T08:31:21;16.10;99.90
51567;DHT22;37657;53.182;5.638;2023-05-07T08:33:47;16.20;99.90
51567;DHT22;37657;53.182;5.638;2023-05-07T08:36:12;16.20;99.90
51567;DHT22;37657;53.182;5.638;2023-05-07T08:38:38;16.10;99.90
51567;DHT22;37657;53.182;5.638;2023-05-07T08:41:06;16.20;99.90
51567;DHT22;37657;53.182;5.638;2023-05-07T08:43:33;16.30;99.90
51567;DHT22;37657;53.182;5.638;2023-05-07T08:46:01;16.30;99.90
51567;DHT22;37657;53.182;5.638;2023-05-07T08:48:29;16.20;99.90
51567;DHT22;37657;53.182;5.638;2023-05-07T08:50:57;16.20;99.90
51567;DHT22;37657;53.182;5.638;2023-05-07T08:53:23;16.30;99.90
51567;DHT22;37657;53.182;5.638;2023-05-07T08:55:49;16.50;99.90
51567;DHT22;37657;53.182;5.638;2023-05-07T08:58:15;16.60;99.90
51567;DHT22;37657;53.182;5.638;2023-05-07T09:00:41;16.70;99.90
51567;DHT22;37657;53.182;5.638;2023-05-07T09:03:07;16.80;99.90
51567;DHT22;37657;53.182;5.638;2023-05-07T09:05:32;16.80;99.90
51567;DHT22;37657;53.182;5.638;2023-05-07T09:08:06;16.80;99.90
51567;DHT22;37657;53.182;5.638;2023-05-07T09:10:35;16.80;99.90
51567;DHT22;37657;53.182;5.638;2023-05-07T09:13:02;16.80;99.90
51567;DHT22;37657;53.182;5.638;2023-05-07T09:15:28;16.80;99.90
51567;DHT22;37657;53.182;5.638;2023-05-07T09:17:54;17.00;99.90
51567;DHT22;37657;53.182;5.638;2023-05-07T09:20:20;17.20;99.90
51567;DHT22;37657;53.182;5.638;2023-05-07T09:22:45;17.20;99.90
51567;DHT22;37657;53.182;5.638;2023-05-07T09:25:11;17.10;99.90
51567;DHT22;37657;53.182;5.638;2023-05-07T09:27:37;17.10;99.90
51567;DHT22;37657;53.182;5.638;2023-05-07T09:30:09;17.10;99.90
51567;DHT22;37657;53.182;5.638;2023-05-07T09:32:36;17.10;99.90
51567;DHT22;37657;53.182;5.638;2023-05-07T09:35:03;17.10;99.90
51567;DHT22;37657;53.182;5.638;2023-05-07T09:37:31;17.20;99.90
51567;DHT22;37657;53.182;5.638;2023-05-07T09:39:58;17.30;99.90
51567;DHT22;37657;53.182;5.638;2023-05-07T09:42:26;17.40;99.90
51567;DHT22;37657;53.182;5.638;2023-05-07T09:44:52;17.40;99.90
51567;DHT22;37657;53.182;5.638;2023-05-07T09:47:19;17.40;99.90
51567;DHT22;37657;53.182;5.638;2023-05-07T09:49:47;17.40;99.90
51567;DHT22;37657;53.182;5.638;2023-05-07T09:52:13;17.40;99.90
51567;DHT22;37657;53.182;5.638;2023-05-07T09:54:40;17.40;99.90
51567;DHT22;37657;53.182;5.638;2023-05-07T09:57:12;17.30;99.90
51567;DHT22;37657;53.182;5.638;2023-05-07T09:59:42;17.40;99.90
51567;DHT22;37657;53.182;5.638;2023-05-07T10:02:09;17.40;99.90
51567;DHT22;37657;53.182;5.638;2023-05-07T10:04:35;17.50;99.90
51567;DHT22;37657;53.182;5.638;2023-05-07T10:07:03;17.40;99.90
51567;DHT22;37657;53.182;5.638;2023-05-07T10:09:30;17.40;99.90
51567;DHT22;37657;53.182;5.638;2023-05-07T10:11:56;17.50;99.90
51567;DHT22;37657;53.182;5.638;2023-05-07T10:14:22;17.60;99.90
51567;DHT22;37657;53.182;5.638;2023-05-07T10:16:48;17.80;99.90
51567;DHT22;37657;53.182;5.638;2023-05-07T10:19:14;17.80;99.90
51567;DHT22;37657;53.182;5.638;2023-05-07T10:21:48;18.00;99.90
51567;DHT22;37657;53.182;5.638;2023-05-07T10:24:28;18.10;99.90
51567;DHT22;37657;53.182;5.638;2023-05-07T10:26:55;18.20;99.90
51567;DHT22;37657;53.182;5.638;2023-05-07T10:35:01;18.40;99.90
51567;DHT22;37657;53.182;5.638;2023-05-07T10:37:28;18.50;99.90
51567;DHT22;37657;53.182;5.638;2023-05-07T10:39:54;18.50;99.90
51567;DHT22;37657;53.182;5.638;2023-05-07T10:42:20;18.50;99.90
51567;DHT22;37657;53.182;5.638;2023-05-07T10:44:46;18.50;99.90
51567;DHT22;37657;53.182;5.638;2023-05-07T10:47:13;18.50;99.90
51567;DHT22;37657;53.182;5.638;2023-05-07T10:52:16;18.50;99.90
51567;DHT22;37657;53.182;5.638;2023-05-07T10:54:42;18.50;99.90
51567;DHT22;37657;53.182;5.638;2023-05-07T10:57:34;18.50;99.90
51567;DHT22;37657;53.182;5.638;2023-05-07T11:00:40;18.50;99.90
51567;DHT22;37657;53.182;5.638;2023-05-07T11:05:25;18.50;99.90
51567;DHT22;37657;53.182;5.638;2023-05-07T11:07:55;18.50;99.90
51567;DHT22;37657;53.182;5.638;2023-05-07T11:10:21;18.50;99.90
51567;DHT22;37657;53.182;5.638;2023-05-07T11:12:48;18.40;99.90
51567;DHT22;37657;53.182;5.638;2023-05-07T11:15:15;18.40;99.90
51567;DHT22;37657;53.182;5.638;2023-05-07T11:17:53;18.40;99.90
51567;DHT22;37657;53.182;5.638;2023-05-07T11:20:19;18.50;99.90
51567;DHT22;37657;53.182;5.638;2023-05-07T11:22:46;18.50;99.90
51567;DHT22;37657;53.182;5.638;2023-05-07T11:25:17;18.50;99.90
51567;DHT22;37657;53.182;5.638;2023-05-07T11:27:44;18.60;99.90
51567;DHT22;37657;53.182;5.638;2023-05-07T11:30:10;18.70;99.90
51567;DHT22;37657;53.182;5.638;2023-05-07T11:32:36;18.80;99.90
51567;DHT22;37657;53.182;5.638;2023-05-07T11:35:02;18.80;99.90
51567;DHT22;37657;53.182;5.638;2023-05-07T11:37:28;18.90;99.90
51567;DHT22;37657;53.182;5.638;2023-05-07T11:40:06;18.80;99.90
51567;DHT22;37657;53.182;5.638;2023-05-07T11:42:35;18.80;99.90
51567;DHT22;37657;53.182;5.638;2023-05-07T11:45:03;18.90;99.90
51567;DHT22;37657;53.182;5.638;2023-05-07T11:47:33;19.10;99.90
51567;DHT22;37657;53.182;5.638;2023-05-07T11:50:06;19.20;99.90
51567;DHT22;37657;53.182;5.638;2023-05-07T11:52:33;19.30;99.90
51567;DHT22;37657;53.182;5.638;2023-05-07T11:54:59;19.40;99.90
51567;DHT22;37657;53.182;5.638;2023-05-07T11:57:26;19.40;99.90
51567;DHT22;37657;53.182;5.638;2023-05-07T11:59:55;19.40;99.90
51567;DHT22;37657;53.182;5.638;2023-05-07T12:02:21;19.40;99.90
51567;DHT22;37657;53.182;5.638;2023-05-07T12:04:47;19.30;99.90
51567;DHT22;37657;53.182;5.638;2023-05-07T12:07:13;19.40;99.90
51567;DHT22;37657;53.182;5.638;2023-05-07T12:09:40;19.60;99.90
51567;DHT22;37657;53.182;5.638;2023-05-07T12:12:06;19.60;99.90
51567;DHT22;37657;53.182;5.638;2023-05-07T12:14:31;19.60;99.90
51567;DHT22;37657;53.182;5.638;2023-05-07T12:16:59;19.70;99.90
51567;DHT22;37657;53.182;5.638;2023-05-07T12:19:29;19.70;99.90
51567;DHT22;37657;53.182;5.638;2023-05-07T12:21:54;19.80;99.90
51567;DHT22;37657;53.182;5.638;2023-05-07T12:24:21;19.80;99.90
51567;DHT22;37657;53.182;5.638;2023-05-07T12:26:48;19.80;99.90
51567;DHT22;37657;53.182;5.638;2023-05-07T12:29:13;19.90;99.90
51567;DHT22;37657;53.182;5.638;2023-05-07T12:31:42;20.10;99.90
51567;DHT22;37657;53.182;5.638;2023-05-07T12:34:11;20.20;99.90
51567;DHT22;37657;53.182;5.638;2023-05-07T12:36:37;20.30;99.90
51567;DHT22;37657;53.182;5.638;2023-05-07T12:39:07;20.30;99.90
51567;DHT22;37657;53.182;5.638;2023-05-07T12:41:52;20.30;99.90
51567;DHT22;37657;53.182;5.638;2023-05-07T12:44:18;20.30;99.90
51567;DHT22;37657;53.182;5.638;2023-05-07T12:46:44;20.30;99.90
51567;DHT22;37657;53.182;5.638;2023-05-07T12:49:12;20.30;99.90
51567;DHT22;37657;53.182;5.638;2023-05-07T12:51:37;20.30;99.90
51567;DHT22;37657;53.182;5.638;2023-05-07T12:54:03;20.20;99.90
51567;DHT22;37657;53.182;5.638;2023-05-07T12:56:31;20.20;99.90
51567;DHT22;37657;53.182;5.638;2023-05-07T12:58:59;20.30;99.90
51567;DHT22;37657;53.182;5.638;2023-05-07T13:01:29;20.30;99.90
51567;DHT22;37657;53.182;5.638;2023-05-07T13:03:56;20.40;99.90
51567;DHT22;37657;53.182;5.638;2023-05-07T13:06:25;20.50;99.90
51567;DHT22;37657;53.182;5.638;2023-05-07T13:08:51;20.50;99.90
51567;DHT22;37657;53.182;5.638;2023-05-07T13:11:17;20.50;99.90
51567;DHT22;37657;53.182;5.638;2023-05-07T13:13:42;20.60;99.90
51567;DHT22;37657;53.182;5.638;2023-05-07T13:16:09;20.60;99.90
51567;DHT22;37657;53.182;5.638;2023-05-07T13:18:37;20.70;99.90
51567;DHT22;37657;53.182;5.638;2023-05-07T13:21:03;20.80;99.90
51567;DHT22;37657;53.182;5.638;2023-05-07T13:23:29;20.70;99.90
51567;DHT22;37657;53.182;5.638;2023-05-07T13:25:55;20.80;99.90
51567;DHT22;37657;53.182;5.638;2023-05-07T13:28:21;20.80;99.90
51567;DHT22;37657;53.182;5.638;2023-05-07T13:30:47;20.80;99.90
51567;DHT22;37657;53.182;5.638;2023-05-07T13:33:13;20.70;99.90
51567;DHT22;37657;53.182;5.638;2023-05-07T13:35:40;20.70;99.90
51567;DHT22;37657;53.182;5.638;2023-05-07T13:38:05;20.60;99.90
51567;DHT22;37657;53.182;5.638;2023-05-07T13:40:31;20.50;99.90
51567;DHT22;37657;53.182;5.638;2023-05-07T13:42:58;20.50;99.90
51567;DHT22;37657;53.182;5.638;2023-05-07T13:45:24;20.40;99.90
51567;DHT22;37657;53.182;5.638;2023-05-07T13:47:51;20.40;99.90
51567;DHT22;37657;53.182;5.638;2023-05-07T13:50:16;20.60;99.90
51567;DHT22;37657;53.182;5.638;2023-05-07T13:52:43;20.50;99.90
51567;DHT22;37657;53.182;5.638;2023-05-07T13:55:18;20.50;99.90
51567;DHT22;37657;53.182;5.638;2023-05-07T13:57:44;20.50;99.90
51567;DHT22;37657;53.182;5.638;2023-05-07T14:00:11;20.60;99.90
51567;DHT22;37657;53.182;5.638;2023-05-07T14:02:36;20.60;99.90
51567;DHT22;37657;53.182;5.638;2023-05-07T14:05:02;20.40;99.90
51567;DHT22;37657;53.182;5.638;2023-05-07T14:07:28;20.20;99.90
51567;DHT22;37657;53.182;5.638;2023-05-07T14:09:54;20.10;99.90
51567;DHT22;37657;53.182;5.638;2023-05-07T14:12:20;20.10;99.90
51567;DHT22;37657;53.182;5.638;2023-05-07T14:14:46;20.10;99.90
51567;DHT22;37657;53.182;5.638;2023-05-07T14:17:12;20.10;99.90
51567;DHT22;37657;53.182;5.638;2023-05-07T14:19:38;20.10;99.90
51567;DHT22;37657;53.182;5.638;2023-05-07T14:22:03;20.10;99.90
51567;DHT22;37657;53.182;5.638;2023-05-07T14:24:29;20.10;99.90
51567;DHT22;37657;53.182;5.638;2023-05-07T14:26:54;20.00;99.90
51567;DHT22;37657;53.182;5.638;2023-05-07T14:29:20;20.10;99.90
51567;DHT22;37657;53.182;5.638;2023-05-07T14:31:45;20.10;99.90
51567;DHT22;37657;53.182;5.638;2023-05-07T14:34:11;20.10;99.90
51567;DHT22;37657;53.182;5.638;2023-05-07T14:36:37;20.10;99.90
51567;DHT22;37657;53.182;5.638;2023-05-07T14:39:03;20.10;99.90
51567;DHT22;37657;53.182;5.638;2023-05-07T14:41:29;20.10;99.90
51567;DHT22;37657;53.182;5.638;2023-05-07T14:43:55;20.00;99.90
51567;DHT22;37657;53.182;5.638;2023-05-07T14:46:20;20.00;99.90
51567;DHT22;37657;53.182;5.638;2023-05-07T14:48:46;20.00;99.90
51567;DHT22;37657;53.182;5.638;2023-05-07T14:51:12;20.00;99.90
51567;DHT22;37657;53.182;5.638;2023-05-07T14:53:38;20.10;99.90
51567;DHT22;37657;53.182;5.638;2023-05-07T14:56:04;20.10;99.90
51567;DHT22;37657;53.182;5.638;2023-05-07T14:58:30;20.10;99.90
51567;DHT22;37657;53.182;5.638;2023-05-07T15:00:56;20.10;99.90
51567;DHT22;37657;53.182;5.638;2023-05-07T15:03:21;20.20;99.90
51567;DHT22;37657;53.182;5.638;2023-05-07T15:05:47;20.20;99.90
51567;DHT22;37657;53.182;5.638;2023-05-07T15:08:13;20.20;99.90
51567;DHT22;37657;53.182;5.638;2023-05-07T15:10:38;20.30;99.90
51567;DHT22;37657;53.182;5.638;2023-05-07T15:13:10;20.20;99.90
51567;DHT22;37657;53.182;5.638;2023-05-07T15:15:36;20.20;99.90
51567;DHT22;37657;53.182;5.638;2023-05-07T15:18:03;20.10;99.90
51567;DHT22;37657;53.182;5.638;2023-05-07T15:20:29;20.00;99.90
51567;DHT22;37657;53.182;5.638;2023-05-07T15:22:54;20.00;99.90
51567;DHT22;37657;53.182;5.638;2023-05-07T15:25:21;19.90;99.90
51567;DHT22;37657;53.182;5.638;2023-05-07T15:27:47;19.90;99.90
51567;DHT22;37657;53.182;5.638;2023-05-07T15:30:13;19.80;99.90
51567;DHT22;37657;53.182;5.638;2023-05-07T15:32:39;19.80;99.90
51567;DHT22;37657;53.182;5.638;2023-05-07T15:35:06;19.80;99.90
51567;DHT22;37657;53.182;5.638;2023-05-07T15:37:32;19.80;99.90